Time;durP1;ratioP1;P1;durP2;ratioP2;P2;SDS_P1;SDS_P2;PMS_P1;PMS_P2;Temp;Humidity;BMP_temperature;BMP_pressure;BME280_temperature;BME280_humidity;BME280_pressure;Samples;Min_cycle;Max_cycle;Signal;HPM_P1;HPM_P2
2023/01/28 00:02:08;;;;;;;7.97;7.00;;;;;;;;;;5056783;28;20179;-71
2023/01/28 00:04:34;;;;;;;7.37;6.53;;;;;;;;;;5058041;28;20179;-71
2023/01/28 00:07:01;;;;;;;7.77;7.07;;;;;;;;;;5075598;28;20201;-70
2023/01/28 00:09:26;;;;;;;8.23;7.43;;;;;;;;;;5075222;28;20285;-69
2023/01/28 00:11:52;;;;;;;8.90;7.40;;;;;;;;;;5072285;28;20198;-68
2023/01/28 00:14:18;;;;;;;9.40;7.87;;;;;;;;;;5067962;28;20548;-68
2023/01/28 00:16:45;;;;;;;8.57;7.70;;;;;;;;;;5067894;28;20545;-69
2023/01/28 00:19:11;;;;;;;11.30;8.10;;;;;;;;;;5052937;28;20266;-69
2023/01/28 00:21:37;;;;;;;8.50;7.70;;;;;;;;;;5056976;28;20428;-71
2023/01/28 00:24:03;;;;;;;9.17;8.27;;;;;;;;;;5091090;22;20233;-68
2023/01/28 00:26:29;;;;;;;8.73;7.83;;;;;;;;;;5075000;28;20253;-68
2023/01/28 00:28:55;;;;;;;9.53;8.63;;;;;;;;;;5077628;28;20174;-68
2023/01/28 00:31:22;;;;;;;10.23;9.33;;;;;;;;;;5076912;28;20205;-68
2023/01/28 00:33:49;;;;;;;9.77;8.77;;;;;;;;;;5076523;28;20194;-68
2023/01/28 00:36:15;;;;;;;10.70;8.70;;;;;;;;;;5075234;28;20643;-68
2023/01/28 00:38:42;;;;;;;9.73;8.73;;;;;;;;;;5074747;28;20173;-68
2023/01/28 00:41:09;;;;;;;9.90;8.90;;;;;;;;;;5074779;28;20561;-68
2023/01/28 00:43:35;;;;;;;9.90;9.00;;;;;;;;;;5074569;28;20206;-70
2023/01/28 00:46:01;;;;;;;10.53;9.43;;;;;;;;;;5075134;28;20204;-68
2023/01/28 00:48:27;;;;;;;10.57;9.57;;;;;;;;;;5076090;28;20174;-67
2023/01/28 00:50:53;;;;;;;12.03;10.67;;;;;;;;;;5074474;28;20568;-68
2023/01/28 00:53:19;;;;;;;11.90;10.70;;;;;;;;;;5074219;28;20307;-69
2023/01/28 00:55:45;;;;;;;10.63;9.67;;;;;;;;;;5076121;28;20551;-69
2023/01/28 00:58:11;;;;;;;10.43;9.33;;;;;;;;;;5075576;28;20252;-69
2023/01/28 01:00:37;;;;;;;10.73;9.63;;;;;;;;;;5075664;28;20205;-68
2023/01/28 01:03:03;;;;;;;10.20;9.20;;;;;;;;;;5076502;28;20205;-69
2023/01/28 01:05:29;;;;;;;10.73;9.73;;;;;;;;;;5076555;28;20180;-69
2023/01/28 01:07:55;;;;;;;10.60;9.60;;;;;;;;;;5075395;28;20170;-69
2023/01/28 01:10:21;;;;;;;11.43;10.33;;;;;;;;;;5075081;28;20178;-69
2023/01/28 01:12:48;;;;;;;10.60;9.53;;;;;;;;;;5074903;28;20221;-68
2023/01/28 01:15:15;;;;;;;10.80;9.90;;;;;;;;;;5075430;28;20212;-68
2023/01/28 01:17:42;;;;;;;10.57;9.47;;;;;;;;;;5075209;28;20253;-69
2023/01/28 01:20:09;;;;;;;10.63;9.63;;;;;;;;;;5082896;28;20181;-71
2023/01/28 01:22:36;;;;;;;10.50;9.60;;;;;;;;;;5094074;28;20209;-70
2023/01/28 01:25:02;;;;;;;10.47;9.57;;;;;;;;;;5091916;28;20235;-70
2023/01/28 01:27:29;;;;;;;10.13;9.10;;;;;;;;;;5093752;28;20182;-69
2023/01/28 01:29:55;;;;;;;10.87;9.83;;;;;;;;;;5082733;28;20664;-69
2023/01/28 01:32:21;;;;;;;10.40;9.40;;;;;;;;;;5079771;28;20237;-69
2023/01/28 01:34:47;;;;;;;10.83;9.83;;;;;;;;;;5079324;28;20177;-69
2023/01/28 01:37:13;;;;;;;11.30;10.20;;;;;;;;;;5077956;28;20205;-69
2023/01/28 01:39:39;;;;;;;10.10;9.13;;;;;;;;;;5076980;28;20182;-69
2023/01/28 01:42:05;;;;;;;9.93;8.40;;;;;;;;;;5076921;28;20179;-69
2023/01/28 01:44:50;;;;;;;9.17;7.60;;;;;;;;;;5076491;28;20174;-69
2023/01/28 01:47:17;;;;;;;7.83;7.13;;;;;;;;;;5075868;28;20216;-69
2023/01/28 01:49:43;;;;;;;7.90;7.20;;;;;;;;;;5076706;28;20181;-69
2023/01/28 01:52:15;;;;;;;7.27;6.57;;;;;;;;;;5075095;28;20228;-69
2023/01/28 01:54:42;;;;;;;7.17;6.50;;;;;;;;;;5075401;28;20170;-69
2023/01/28 01:57:11;;;;;;;5.73;5.13;;;;;;;;;;5076508;28;20202;-69
2023/01/28 01:59:37;;;;;;;9.33;6.93;;;;;;;;;;5075361;28;20829;-69
2023/01/28 02:02:04;;;;;;;7.90;7.10;;;;;;;;;;5076711;28;20416;-69
2023/01/28 02:04:33;;;;;;;10.20;7.30;;;;;;;;;;5077250;28;20420;-69
2023/01/28 02:07:01;;;;;;;7.97;7.23;;;;;;;;;;5075086;28;20178;-70
2023/01/28 02:09:31;;;;;;;8.40;7.43;;;;;;;;;;5076253;28;20189;-69
2023/01/28 02:12:02;;;;;;;8.10;7.40;;;;;;;;;;5074099;28;20198;-69
2023/01/28 02:14:29;;;;;;;7.40;6.70;;;;;;;;;;5075886;28;20177;-69
2023/01/28 02:16:55;;;;;;;7.23;6.53;;;;;;;;;;5075274;28;20438;-69
2023/01/28 02:19:22;;;;;;;7.40;6.70;;;;;;;;;;5074625;28;20181;-69
2023/01/28 02:22:01;;;;;;;7.90;7.10;;;;;;;;;;5074966;28;20235;-69
2023/01/28 02:24:38;;;;;;;10.20;7.30;;;;;;;;;;5075326;28;20428;-70
2023/01/28 02:27:10;;;;;;;8.07;7.33;;;;;;;;;;5074215;28;20169;-69
2023/01/28 02:29:44;;;;;;;9.57;6.93;;;;;;;;;;5074103;28;20182;-68
2023/01/28 02:32:10;;;;;;;8.90;7.40;;;;;;;;;;5074293;28;20206;-69
2023/01/28 02:34:47;;;;;;;8.63;7.83;;;;;;;;;;5075755;28;20592;-69
2023/01/28 02:37:20;;;;;;;8.67;7.77;;;;;;;;;;5074839;28;20527;-69
2023/01/28 02:39:57;;;;;;;8.37;7.50;;;;;;;;;;5072971;28;20639;-69
2023/01/28 02:42:26;;;;;;;8.50;7.70;;;;;;;;;;5073913;28;20423;-69
2023/01/28 02:44:52;;;;;;;9.67;8.77;;;;;;;;;;5074448;28;20419;-69
2023/01/28 02:50:05;;;;;;;10.20;9.20;;;;;;;;;;5074399;28;20169;-71
2023/01/28 02:55:46;;;;;;;11.00;9.97;;;;;;;;;;5074055;28;20260;-69
2023/01/28 02:58:18;;;;;;;10.53;9.53;;;;;;;;;;5073873;28;20635;-69
2023/01/28 03:00:57;;;;;;;11.70;9.80;;;;;;;;;;5072493;28;20502;-69
2023/01/28 03:03:29;;;;;;;10.90;9.07;;;;;;;;;;5073557;28;20197;-69
2023/01/28 03:06:05;;;;;;;9.40;8.50;;;;;;;;;;5073792;28;20208;-67
2023/01/28 03:36:49;;;;;;;10.73;9.77;;;;;;;;;;5077847;28;20173;-69
2023/01/28 03:39:16;;;;;;;9.40;8.50;;;;;;;;;;5076916;28;20158;-70
2023/01/28 03:41:43;;;;;;;9.80;8.80;;;;;;;;;;5077144;28;20408;-68
2023/01/28 03:46:53;;;;;;;9.90;9.00;;;;;;;;;;5077050;28;20223;-68
2023/01/28 03:49:19;;;;;;;9.67;8.40;;;;;;;;;;5075388;28;20280;-69
2023/01/28 03:51:45;;;;;;;10.70;9.70;;;;;;;;;;5076515;28;20202;-69
2023/01/28 03:54:12;;;;;;;10.73;9.73;;;;;;;;;;5076985;28;20194;-69
2023/01/28 03:56:39;;;;;;;10.53;9.53;;;;;;;;;;5075641;28;20597;-68
2023/01/28 03:59:05;;;;;;;10.90;9.00;;;;;;;;;;5076940;28;20495;-68
2023/01/28 04:01:31;;;;;;;10.30;9.30;;;;;;;;;;5075610;28;20605;-68
2023/01/28 04:03:57;;;;;;;13.27;9.80;;;;;;;;;;5077561;28;21036;-69
2023/01/28 04:06:23;;;;;;;11.63;10.43;;;;;;;;;;5077949;28;20209;-69
2023/01/28 04:08:52;;;;;;;11.47;10.40;;;;;;;;;;5077166;28;20186;-69
2023/01/28 04:11:24;;;;;;;11.50;10.07;;;;;;;;;;5076376;28;20178;-70
2023/01/28 04:13:50;;;;;;;12.63;11.37;;;;;;;;;;5076572;28;20772;-68
2023/01/28 04:16:17;;;;;;;13.90;12.43;;;;;;;;;;5074930;28;20412;-69
2023/01/28 04:18:43;;;;;;;13.73;12.30;;;;;;;;;;5076332;28;20647;-68
2023/01/28 04:21:10;;;;;;;12.77;11.40;;;;;;;;;;5074871;28;20192;-69
2023/01/28 04:23:36;;;;;;;15.27;13.63;;;;;;;;;;5076337;28;20205;-69
2023/01/28 04:26:03;;;;;;;16.10;12.80;;;;;;;;;;5074556;28;20769;-69
2023/01/28 04:28:29;;;;;;;14.63;13.10;;;;;;;;;;5076043;28;20223;-69
2023/01/28 04:30:55;;;;;;;16.17;13.80;;;;;;;;;;5074680;28;20413;-68
2023/01/28 04:33:21;;;;;;;14.87;12.13;;;;;;;;;;5076063;28;20459;-69
2023/01/28 04:35:47;;;;;;;14.93;13.43;;;;;;;;;;5075924;28;20178;-69
2023/01/28 04:38:13;;;;;;;15.47;13.87;;;;;;;;;;5074540;28;20423;-69
2023/01/28 04:40:39;;;;;;;18.37;14.73;;;;;;;;;;5076200;28;20349;-69
2023/01/28 04:43:05;;;;;;;15.80;13.57;;;;;;;;;;5076154;28;20197;-69
2023/01/28 04:45:31;;;;;;;13.30;10.33;;;;;;;;;;5075325;28;20189;-69
2023/01/28 04:47:57;;;;;;;16.77;15.00;;;;;;;;;;5075683;28;20170;-69
2023/01/28 04:50:23;;;;;;;18.13;14.47;;;;;;;;;;5075773;28;20272;-69
2023/01/28 04:52:49;;;;;;;15.77;14.17;;;;;;;;;;5075592;28;20213;-69
2023/01/28 04:55:15;;;;;;;15.50;13.90;;;;;;;;;;5075930;28;20563;-70
2023/01/28 04:57:42;;;;;;;16.70;14.53;;;;;;;;;;5074462;28;20292;-69
2023/01/28 05:00:08;;;;;;;16.37;14.67;;;;;;;;;;5075537;28;20208;-69
2023/01/28 05:02:34;;;;;;;16.90;14.63;;;;;;;;;;5075391;28;20201;-69
2023/01/28 05:05:03;;;;;;;16.20;14.60;;;;;;;;;;5075828;28;20545;-69
2023/01/28 05:07:29;;;;;;;16.57;14.67;;;;;;;;;;5074233;28;20315;-69
2023/01/28 05:09:55;;;;;;;17.13;15.20;;;;;;;;;;5074330;28;20185;-70
2023/01/28 05:12:21;;;;;;;17.50;15.60;;;;;;;;;;5073702;28;20215;-69
2023/01/28 05:14:47;;;;;;;18.07;15.80;;;;;;;;;;5075074;28;20248;-69
2023/01/28 05:17:13;;;;;;;17.53;14.60;;;;;;;;;;5075337;28;20549;-69
2023/01/28 05:19:39;;;;;;;17.47;15.60;;;;;;;;;;5075119;28;20269;-71
2023/01/28 05:22:05;;;;;;;18.00;15.43;;;;;;;;;;5074571;28;20553;-70
2023/01/28 05:24:31;;;;;;;19.20;16.07;;;;;;;;;;5075799;28;20217;-69
2023/01/28 05:26:57;;;;;;;18.67;15.97;;;;;;;;;;5088729;28;20177;-70
2023/01/28 05:29:23;;;;;;;18.80;16.77;;;;;;;;;;5095748;28;20182;-70
2023/01/28 05:31:49;;;;;;;20.07;17.47;;;;;;;;;;5094966;28;20202;-70
2023/01/28 05:34:15;;;;;;;22.57;18.37;;;;;;;;;;5084118;28;20568;-69
2023/01/28 05:36:41;;;;;;;19.70;17.60;;;;;;;;;;5074158;28;20631;-69
2023/01/28 05:39:07;;;;;;;21.17;18.03;;;;;;;;;;5075335;28;20249;-69
2023/01/28 05:41:33;;;;;;;20.53;17.43;;;;;;;;;;5074093;28;20529;-69
2023/01/28 05:43:59;;;;;;;20.17;16.90;;;;;;;;;;5075551;28;20210;-69
2023/01/28 05:46:25;;;;;;;20.93;18.13;;;;;;;;;;5073801;28;20412;-69
2023/01/28 05:48:51;;;;;;;21.43;17.80;;;;;;;;;;5074924;28;20461;-69
2023/01/28 05:51:17;;;;;;;20.83;15.83;;;;;;;;;;5073842;28;20193;-70
2023/01/28 05:53:43;;;;;;;19.57;17.10;;;;;;;;;;5075132;28;20193;-69
2023/01/28 05:56:09;;;;;;;20.37;16.13;;;;;;;;;;5073718;28;20177;-69
2023/01/28 05:58:35;;;;;;;17.93;15.80;;;;;;;;;;5073348;28;20186;-69
2023/01/28 06:01:01;;;;;;;24.60;17.47;;;;;;;;;;5073671;28;20185;-69
2023/01/28 06:03:27;;;;;;;19.20;17.10;;;;;;;;;;5073444;28;20205;-69
2023/01/28 06:05:53;;;;;;;25.37;18.87;;;;;;;;;;5073276;28;20422;-69
2023/01/28 06:08:19;;;;;;;21.53;18.03;;;;;;;;;;5074336;28;20178;-69
2023/01/28 06:10:45;;;;;;;20.83;18.20;;;;;;;;;;5072920;28;20178;-69
2023/01/28 06:13:11;;;;;;;24.53;17.60;;;;;;;;;;5074509;28;20265;-69
2023/01/28 06:15:37;;;;;;;23.00;16.90;;;;;;;;;;5074339;28;20459;-71
2023/01/28 06:18:03;;;;;;;24.83;17.17;;;;;;;;;;5074542;28;20256;-69
2023/01/28 06:20:29;;;;;;;23.83;17.23;;;;;;;;;;5074461;28;20855;-70
2023/01/28 06:22:55;;;;;;;20.00;14.43;;;;;;;;;;5072941;28;20225;-69
2023/01/28 06:25:21;;;;;;;20.77;16.87;;;;;;;;;;5073105;28;20287;-69
2023/01/28 06:27:47;;;;;;;21.90;16.37;;;;;;;;;;5072944;28;20188;-69
2023/01/28 06:30:13;;;;;;;21.37;16.80;;;;;;;;;;5074755;28;20650;-69
2023/01/28 06:32:39;;;;;;;19.03;15.30;;;;;;;;;;5072790;28;20224;-70
2023/01/28 06:35:05;;;;;;;18.53;15.37;;;;;;;;;;5079585;28;20181;-70
2023/01/28 06:37:31;;;;;;;20.07;16.03;;;;;;;;;;5086189;28;20494;-70
2023/01/28 06:39:57;;;;;;;18.47;16.17;;;;;;;;;;5089885;28;20170;-70
2023/01/28 06:42:23;;;;;;;18.53;16.03;;;;;;;;;;5087574;28;20198;-69
2023/01/28 06:44:49;;;;;;;21.13;17.10;;;;;;;;;;5090181;28;20177;-69
2023/01/28 06:47:15;;;;;;;21.23;16.33;;;;;;;;;;5074518;28;20210;-69
2023/01/28 06:49:41;;;;;;;18.37;16.33;;;;;;;;;;5074166;28;20181;-69
2023/01/28 06:52:07;;;;;;;21.07;16.23;;;;;;;;;;5072551;28;20205;-69
2023/01/28 06:54:33;;;;;;;21.97;17.23;;;;;;;;;;5072526;28;20268;-69
2023/01/28 06:56:59;;;;;;;23.67;18.27;;;;;;;;;;5074131;28;20169;-69
2023/01/28 06:59:25;;;;;;;25.33;17.87;;;;;;;;;;5074889;28;20174;-69
2023/01/28 07:01:51;;;;;;;21.13;18.23;;;;;;;;;;5072364;28;20268;-69
2023/01/28 07:04:17;;;;;;;20.73;18.53;;;;;;;;;;5072441;28;20479;-69
2023/01/28 07:06:43;;;;;;;22.87;17.50;;;;;;;;;;5074326;28;20177;-69
2023/01/28 07:09:09;;;;;;;20.00;17.40;;;;;;;;;;5076182;28;20184;-69
2023/01/28 07:11:35;;;;;;;24.60;17.90;;;;;;;;;;5077877;28;21026;-69
2023/01/28 07:14:01;;;;;;;23.73;18.73;;;;;;;;;;5077118;28;20963;-69
2023/01/28 07:16:27;;;;;;;24.53;19.67;;;;;;;;;;5077820;28;20495;-69
2023/01/28 07:18:53;;;;;;;25.70;19.27;;;;;;;;;;5077378;28;20182;-69
2023/01/28 07:21:19;;;;;;;20.70;17.77;;;;;;;;;;5077221;28;20592;-69
2023/01/28 07:23:45;;;;;;;24.20;18.80;;;;;;;;;;5075953;28;20783;-69
2023/01/28 07:26:11;;;;;;;21.77;18.60;;;;;;;;;;5077089;28;20177;-69
2023/01/28 07:28:37;;;;;;;24.87;17.57;;;;;;;;;;5077168;28;20540;-69
2023/01/28 07:31:03;;;;;;;22.60;19.77;;;;;;;;;;5077270;28;20178;-69
2023/01/28 07:33:29;;;;;;;24.07;19.00;;;;;;;;;;5075875;28;20217;-69
2023/01/28 07:35:55;;;;;;;26.13;21.07;;;;;;;;;;5076936;28;20612;-67
2023/01/28 07:38:21;;;;;;;23.67;19.30;;;;;;;;;;5077140;28;20182;-69
2023/01/28 07:40:47;;;;;;;26.27;21.50;;;;;;;;;;5077046;28;20174;-69
2023/01/28 07:43:13;;;;;;;27.27;21.27;;;;;;;;;;5077070;28;20208;-69
2023/01/28 07:45:39;;;;;;;25.63;19.97;;;;;;;;;;5077241;28;20415;-69
2023/01/28 07:48:06;;;;;;;24.23;20.23;;;;;;;;;;5076911;28;20412;-69
2023/01/28 07:50:34;;;;;;;31.33;20.23;;;;;;;;;;5076996;28;20246;-69
2023/01/28 07:53:02;;;;;;;24.87;20.70;;;;;;;;;;5075438;28;20490;-69
2023/01/28 07:55:28;;;;;;;24.97;20.70;;;;;;;;;;5077011;28;20420;-69
2023/01/28 07:57:55;;;;;;;23.63;20.10;;;;;;;;;;5077227;28;20172;-69
2023/01/28 08:00:22;;;;;;;24.47;20.43;;;;;;;;;;5076734;28;20699;-69
2023/01/28 08:02:49;;;;;;;29.60;22.57;;;;;;;;;;5082554;28;20435;-70
2023/01/28 08:05:16;;;;;;;27.37;22.17;;;;;;;;;;5092091;28;20235;-69
2023/01/28 08:07:42;;;;;;;30.07;21.30;;;;;;;;;;5077442;28;20451;-69
2023/01/28 08:10:09;;;;;;;25.13;20.07;;;;;;;;;;5078131;28;20412;-69
2023/01/28 08:12:34;;;;;;;23.07;19.23;;;;;;;;;;5076693;28;20517;-69
2023/01/28 08:15:00;;;;;;;24.27;19.70;;;;;;;;;;5076797;28;20408;-69
2023/01/28 08:17:27;;;;;;;24.17;19.50;;;;;;;;;;5076674;28;20209;-69
2023/01/28 08:19:53;;;;;;;27.70;19.63;;;;;;;;;;5074688;28;20173;-69
2023/01/28 08:22:24;;;;;;;24.33;20.37;;;;;;;;;;5075877;28;20932;-69
2023/01/28 08:24:50;;;;;;;26.23;21.17;;;;;;;;;;5076513;28;20170;-70
2023/01/28 08:27:16;;;;;;;28.97;20.43;;;;;;;;;;5075311;28;20308;-69
2023/01/28 08:29:42;;;;;;;25.20;19.43;;;;;;;;;;5076332;28;20178;-69
2023/01/28 08:32:09;;;;;;;24.30;18.57;;;;;;;;;;5075109;28;20216;-69
2023/01/28 08:34:35;;;;;;;23.30;18.93;;;;;;;;;;5074982;28;20418;-70
2023/01/28 08:37:01;;;;;;;23.00;18.50;;;;;;;;;;5075197;28;20511;-69
2023/01/28 08:39:26;;;;;;;21.63;17.73;;;;;;;;;;5076679;28;20174;-69
2023/01/28 08:41:52;;;;;;;21.20;17.80;;;;;;;;;;5076823;28;20177;-69
2023/01/28 08:44:18;;;;;;;22.57;18.43;;;;;;;;;;5074941;28;20202;-69
2023/01/28 08:46:44;;;;;;;21.20;17.93;;;;;;;;;;5076395;28;20220;-70
2023/01/28 08:49:10;;;;;;;20.93;16.07;;;;;;;;;;5074882;28;20798;-69
2023/01/28 08:51:36;;;;;;;20.70;17.30;;;;;;;;;;5075878;28;20214;-69
2023/01/28 08:54:02;;;;;;;22.70;17.97;;;;;;;;;;5075632;28;20193;-70
2023/01/28 08:56:29;;;;;;;22.63;17.57;;;;;;;;;;5075915;28;20415;-69
2023/01/28 08:58:55;;;;;;;23.30;18.93;;;;;;;;;;5076871;28;20174;-69
2023/01/28 09:01:21;;;;;;;20.60;17.27;;;;;;;;;;5075792;28;20550;-69
2023/01/28 09:03:47;;;;;;;21.93;17.80;;;;;;;;;;5075512;28;20225;-69
2023/01/28 09:06:13;;;;;;;23.73;18.37;;;;;;;;;;5074128;28;20259;-69
2023/01/28 09:08:39;;;;;;;22.47;18.53;;;;;;;;;;5075465;28;20241;-69
2023/01/28 09:11:05;;;;;;;28.13;21.30;;;;;;;;;;5075376;28;20202;-69
2023/01/28 09:13:31;;;;;;;24.47;18.80;;;;;;;;;;5075126;28;20205;-69
2023/01/28 09:15:57;;;;;;;24.17;19.70;;;;;;;;;;5075184;28;20551;-69
2023/01/28 09:18:23;;;;;;;25.23;19.63;;;;;;;;;;5075430;28;20178;-69
2023/01/28 09:20:49;;;;;;;24.33;18.13;;;;;;;;;;5074430;28;20648;-69
2023/01/28 09:23:15;;;;;;;23.83;18.63;;;;;;;;;;5075751;28;20225;-69
2023/01/28 09:25:41;;;;;;;23.57;19.80;;;;;;;;;;5074425;28;20182;-69
2023/01/28 09:28:07;;;;;;;25.73;19.77;;;;;;;;;;5075997;28;20513;-69
2023/01/28 09:30:34;;;;;;;29.20;19.90;;;;;;;;;;5075287;28;20414;-69
2023/01/28 09:33:00;;;;;;;22.37;18.13;;;;;;;;;;5074354;28;20459;-69
2023/01/28 09:35:26;;;;;;;22.10;17.63;;;;;;;;;;5075031;28;20411;-69
2023/01/28 09:37:55;;;;;;;22.27;17.93;;;;;;;;;;5081360;28;20490;-69
2023/01/28 09:40:29;;;;;;;26.50;19.20;;;;;;;;;;5084974;28;20412;-69
2023/01/28 09:43:01;;;;;;;26.83;19.77;;;;;;;;;;5086474;28;20193;-69
2023/01/28 09:45:33;;;;;;;25.13;21.17;;;;;;;;;;5083192;28;20863;-71
2023/01/28 09:48:01;;;;;;;25.83;21.03;;;;;;;;;;5077336;28;20911;-69
2023/01/28 09:50:27;;;;;;;24.00;20.53;;;;;;;;;;5074854;28;20412;-69
2023/01/28 09:52:56;;;;;;;25.23;21.07;;;;;;;;;;5074776;28;20809;-70
2023/01/28 09:55:29;;;;;;;23.73;19.43;;;;;;;;;;5074716;28;20261;-69
2023/01/28 09:57:56;;;;;;;20.23;16.73;;;;;;;;;;5075246;28;20758;-69
2023/01/28 10:00:23;;;;;;;22.50;18.37;;;;;;;;;;5075010;28;20400;-69
2023/01/28 10:03:01;;;;;;;20.10;16.80;;;;;;;;;;5074629;28;20432;-69
2023/01/28 10:05:38;;;;;;;19.93;17.10;;;;;;;;;;5074355;28;20407;-69
2023/01/28 10:08:27;;;;;;;20.90;17.73;;;;;;;;;;5075089;28;20708;-69
2023/01/28 10:10:58;;;;;;;22.37;17.30;;;;;;;;;;5063550;28;20416;-69
2023/01/28 10:13:30;;;;;;;23.03;16.47;;;;;;;;;;5073928;28;20605;-69
2023/01/28 10:16:06;;;;;;;25.40;19.03;;;;;;;;;;5073861;28;20447;-69
2023/01/28 10:18:40;;;;;;;23.83;18.93;;;;;;;;;;5074087;28;20450;-69
2023/01/28 10:21:10;;;;;;;24.83;20.13;;;;;;;;;;5072844;28;20268;-69
2023/01/28 10:23:39;;;;;;;23.33;18.47;;;;;;;;;;5072741;28;20213;-69
2023/01/28 10:26:14;;;;;;;25.30;20.30;;;;;;;;;;5074150;28;20416;-68
2023/01/28 10:28:40;;;;;;;22.87;19.27;;;;;;;;;;5074434;28;20432;-69
2023/01/28 10:31:15;;;;;;;22.77;18.27;;;;;;;;;;5073173;28;20181;-69
2023/01/28 10:33:41;;;;;;;21.40;15.63;;;;;;;;;;5074237;28;20442;-69
2023/01/28 10:36:08;;;;;;;24.43;19.60;;;;;;;;;;5074426;28;20397;-69
2023/01/28 10:38:35;;;;;;;24.33;18.63;;;;;;;;;;5073789;28;20556;-69
2023/01/28 10:41:02;;;;;;;23.57;19.20;;;;;;;;;;5073344;28;20189;-69
2023/01/28 10:43:36;;;;;;;26.73;18.70;;;;;;;;;;5075385;28;20575;-69
2023/01/28 10:46:04;;;;;;;22.73;18.27;;;;;;;;;;5079070;28;20384;-69
2023/01/28 10:48:36;;;;;;;23.83;18.53;;;;;;;;;;5077251;28;20217;-70
2023/01/28 10:51:05;;;;;;;25.27;19.30;;;;;;;;;;5076982;28;20276;-69
2023/01/28 10:53:37;;;;;;;25.77;19.37;;;;;;;;;;5078289;28;20495;-69
2023/01/28 10:56:03;;;;;;;25.23;18.73;;;;;;;;;;5077376;28;20200;-69
2023/01/28 10:58:31;;;;;;;27.40;19.87;;;;;;;;;;5078819;28;20174;-69
2023/01/28 11:00:59;;;;;;;26.27;19.47;;;;;;;;;;5078012;28;20269;-69
2023/01/28 11:03:29;;;;;;;22.90;19.20;;;;;;;;;;5078870;28;20572;-69
2023/01/28 11:05:56;;;;;;;23.13;19.17;;;;;;;;;;5078487;28;20384;-69
2023/01/28 11:08:24;;;;;;;22.23;19.00;;;;;;;;;;5077978;28;20416;-69
2023/01/28 11:10:50;;;;;;;25.80;18.70;;;;;;;;;;5076392;28;20529;-69
2023/01/28 11:13:20;;;;;;;22.93;18.57;;;;;;;;;;5077956;28;20463;-69
2023/01/28 11:16:01;;;;;;;26.33;19.90;;;;;;;;;;5076627;28;20554;-70
2023/01/28 11:18:29;;;;;;;25.33;20.30;;;;;;;;;;5077892;28;20956;-70
2023/01/28 11:20:57;;;;;;;25.23;19.10;;;;;;;;;;5076653;28;20799;-69
2023/01/28 11:23:25;;;;;;;23.70;19.00;;;;;;;;;;5077846;28;20953;-69
2023/01/28 11:26:08;;;;;;;23.33;19.60;;;;;;;;;;5078047;28;20448;-69
2023/01/28 11:28:35;;;;;;;26.33;21.40;;;;;;;;;;5078625;28;20404;-69
2023/01/28 11:31:02;;;;;;;24.33;20.17;;;;;;;;;;5078122;28;20751;-69
2023/01/28 11:33:38;;;;;;;23.97;19.70;;;;;;;;;;5077596;28;20209;-69
2023/01/28 11:36:04;;;;;;;25.83;19.80;;;;;;;;;;5076628;28;20424;-69
2023/01/28 11:38:30;;;;;;;24.60;18.83;;;;;;;;;;5076107;28;20419;-69
2023/01/28 11:40:59;;;;;;;24.27;19.87;;;;;;;;;;5077971;28;20185;-69
2023/01/28 11:43:26;;;;;;;23.30;18.80;;;;;;;;;;5075723;28;20625;-69
2023/01/28 11:45:59;;;;;;;24.47;20.03;;;;;;;;;;5076241;28;20415;-69
2023/01/28 11:48:30;;;;;;;24.97;20.13;;;;;;;;;;5077570;28;20479;-69
2023/01/28 11:51:22;;;;;;;24.77;20.73;;;;;;;;;;5077800;28;20759;-69
2023/01/28 11:53:57;;;;;;;28.20;21.47;;;;;;;;;;5068405;28;20542;-69
2023/01/28 11:56:45;;;;;;;28.30;21.77;;;;;;;;;;5076103;28;20494;-69
2023/01/28 11:59:30;;;;;;;24.27;20.57;;;;;;;;;;5086743;28;20388;-70
2023/01/28 12:02:02;;;;;;;28.43;22.80;;;;;;;;;;5093241;28;20413;-69
2023/01/28 12:04:57;;;;;;;26.60;22.17;;;;;;;;;;5093515;28;20205;-69
2023/01/28 12:07:40;;;;;;;26.07;21.33;;;;;;;;;;5084029;28;20414;-69
2023/01/28 12:10:13;;;;;;;25.07;20.47;;;;;;;;;;5080771;28;20616;-69
2023/01/28 12:12:45;;;;;;;26.63;21.77;;;;;;;;;;5080153;28;20206;-69
2023/01/28 12:15:26;;;;;;;24.93;21.07;;;;;;;;;;5080139;28;20209;-69
2023/01/28 12:17:58;;;;;;;27.70;21.70;;;;;;;;;;5080371;28;20294;-69
2023/01/28 12:20:47;;;;;;;28.30;23.50;;;;;;;;;;5080453;28;20167;-70
2023/01/28 12:23:25;;;;;;;35.57;23.20;;;;;;;;;;5079754;28;20228;-70
2023/01/28 12:25:51;;;;;;;28.30;18.30;;;;;;;;;;5078485;28;20205;-68
2023/01/28 12:28:39;;;;;;;25.03;20.67;;;;;;;;;;5078741;28;20173;-70
2023/01/28 12:31:05;;;;;;;27.40;19.97;;;;;;;;;;5077864;28;20178;-70
2023/01/28 12:33:37;;;;;;;25.30;20.23;;;;;;;;;;5075767;28;20213;-69
2023/01/28 12:36:13;;;;;;;29.83;22.80;;;;;;;;;;5078288;28;20253;-69
2023/01/28 12:38:48;;;;;;;25.43;20.83;;;;;;;;;;5077143;28;20400;-69
2023/01/28 12:41:15;;;;;;;25.33;21.17;;;;;;;;;;5078323;28;20177;-69
2023/01/28 12:43:41;;;;;;;29.67;22.70;;;;;;;;;;5078525;28;20202;-68
2023/01/28 12:46:34;;;;;;;27.77;21.50;;;;;;;;;;5078358;28;20188;-71
2023/01/28 12:49:05;;;;;;;27.10;22.40;;;;;;;;;;5077229;28;20197;-69
2023/01/28 12:51:42;;;;;;;27.67;21.63;;;;;;;;;;5077797;28;20499;-69
2023/01/28 12:54:16;;;;;;;28.33;21.20;;;;;;;;;;5077211;28;20420;-69
2023/01/28 12:56:45;;;;;;;27.57;21.27;;;;;;;;;;5075742;28;20401;-69
2023/01/28 12:59:11;;;;;;;26.13;21.63;;;;;;;;;;5077447;28;20396;-70
2023/01/28 13:01:46;;;;;;;26.77;21.53;;;;;;;;;;5078589;28;20631;-69
2023/01/28 13:04:17;;;;;;;28.90;23.33;;;;;;;;;;5079106;28;20216;-69
2023/01/28 13:06:43;;;;;;;26.33;20.33;;;;;;;;;;5077898;28;20389;-69
2023/01/28 13:09:23;;;;;;;25.53;21.13;;;;;;;;;;5076079;28;20181;-69
2023/01/28 13:11:51;;;;;;;29.23;21.93;;;;;;;;;;5079536;28;20264;-69
2023/01/28 13:14:17;;;;;;;25.30;20.87;;;;;;;;;;5077578;28;20201;-71
2023/01/28 13:16:43;;;;;;;28.40;22.03;;;;;;;;;;5077324;28;20174;-70
2023/01/28 13:19:18;;;;;;;25.93;20.47;;;;;;;;;;5076488;28;20169;-69
2023/01/28 13:21:45;;;;;;;26.00;20.30;;;;;;;;;;5076157;28;20319;-70
2023/01/28 13:24:11;;;;;;;22.47;15.73;;;;;;;;;;5077453;28;20222;-70
2023/01/28 13:26:40;;;;;;;27.63;22.47;;;;;;;;;;5074990;28;20650;-69
2023/01/28 13:29:08;;;;;;;30.17;23.97;;;;;;;;;;5075762;28;20942;-69
2023/01/28 13:31:39;;;;;;;34.37;24.93;;;;;;;;;;5075029;28;20412;-69
2023/01/28 13:34:05;;;;;;;28.20;22.33;;;;;;;;;;5074865;28;20559;-69
2023/01/28 13:36:45;;;;;;;29.07;23.37;;;;;;;;;;5076917;28;20550;-69
2023/01/28 13:39:14;;;;;;;26.30;22.17;;;;;;;;;;5084114;28;20720;-69
2023/01/28 13:41:44;;;;;;;30.43;22.57;;;;;;;;;;5082774;28;20832;-71
2023/01/28 13:44:20;;;;;;;28.97;23.40;;;;;;;;;;5081326;28;20220;-70
2023/01/28 13:46:46;;;;;;;30.80;23.07;;;;;;;;;;5076789;28;20185;-70
2023/01/28 13:49:15;;;;;;;26.83;22.10;;;;;;;;;;5075843;28;20275;-67
2023/01/28 13:51:51;;;;;;;33.33;23.93;;;;;;;;;;5074409;28;20269;-69
2023/01/28 13:54:20;;;;;;;32.17;26.53;;;;;;;;;;5075570;28;20193;-69
2023/01/28 13:56:57;;;;;;;32.23;26.10;;;;;;;;;;5075220;28;20181;-70
2023/01/28 13:59:41;;;;;;;38.43;28.90;;;;;;;;;;5073826;28;20193;-68
2023/01/28 14:02:18;;;;;;;40.33;29.73;;;;;;;;;;5075676;28;20182;-69
2023/01/28 14:05:13;;;;;;;37.93;28.57;;;;;;;;;;5074983;28;20264;-69
2023/01/28 14:07:58;;;;;;;35.57;27.33;;;;;;;;;;5069854;28;20185;-69
2023/01/28 14:10:31;;;;;;;33.50;26.83;;;;;;;;;;5073256;28;20186;-69
2023/01/28 14:13:16;;;;;;;34.20;26.83;;;;;;;;;;5074740;28;20220;-69
2023/01/28 14:15:51;;;;;;;34.10;25.97;;;;;;;;;;5073720;28;20174;-68
2023/01/28 14:18:24;;;;;;;38.63;28.43;;;;;;;;;;5075149;28;20181;-69
2023/01/28 14:20:51;;;;;;;37.03;29.83;;;;;;;;;;5075727;28;20197;-68
2023/01/28 14:23:20;;;;;;;39.70;30.73;;;;;;;;;;5073419;28;20217;-68
2023/01/28 14:26:09;;;;;;;40.80;29.83;;;;;;;;;;5073226;28;20182;-68
2023/01/28 14:28:41;;;;;;;43.20;30.03;;;;;;;;;;5073867;28;20180;-68
2023/01/28 14:31:27;;;;;;;37.87;27.83;;;;;;;;;;5076514;28;20166;-67
2023/01/28 14:33:54;;;;;;;40.03;29.17;;;;;;;;;;5075859;28;20687;-68
2023/01/28 14:36:20;;;;;;;40.23;29.13;;;;;;;;;;5073975;28;20181;-68
2023/01/28 14:38:46;;;;;;;40.20;30.37;;;;;;;;;;5074905;28;20208;-69
2023/01/28 14:41:21;;;;;;;36.13;27.10;;;;;;;;;;5075344;28;20776;-69
2023/01/28 14:43:47;;;;;;;38.70;28.10;;;;;;;;;;5075345;28;20201;-68
2023/01/28 14:46:23;;;;;;;37.80;26.27;;;;;;;;;;5075603;28;20190;-69
2023/01/28 14:48:49;;;;;;;34.83;26.33;;;;;;;;;;5074718;28;20193;-69
2023/01/28 14:51:27;;;;;;;29.47;23.30;;;;;;;;;;5072199;28;20647;-69
2023/01/28 14:54:10;;;;;;;31.07;26.17;;;;;;;;;;5073638;28;20275;-69
2023/01/28 14:56:47;;;;;;;31.73;24.93;;;;;;;;;;5073870;28;20166;-69
2023/01/28 14:59:19;;;;;;;32.10;24.30;;;;;;;;;;5074696;28;20286;-69
2023/01/28 15:01:46;;;;;;;35.20;25.93;;;;;;;;;;5073802;28;20182;-69
2023/01/28 15:04:24;;;;;;;36.03;28.90;;;;;;;;;;5073522;28;20583;-70
2023/01/28 15:06:50;;;;;;;33.60;27.27;;;;;;;;;;5074536;28;20180;-69
2023/01/28 15:09:16;;;;;;;33.27;27.50;;;;;;;;;;5073972;28;20170;-70